Time;durP1;ratioP1;P1;durP2;ratioP2;P2;SDS_P1;SDS_P2;PMS_P1;PMS_P2;Temp;Humidity;BMP_temperature;BMP_pressure;BME280_temperature;BME280_humidity;BME280_pressure;Samples;Min_cycle;Max_cycle;Signal;HPM_P1;HPM_P2
2021/05/16 00:00:47;;;;;;;2.25;0.40;;;11.30;84.70;;;;;;5032831;28;20034;-69
2021/05/16 00:03:13;;;;;;;0.88;0.28;;;11.40;84.90;;;;;;5032072;28;20037;-69
2021/05/16 00:05:39;;;;;;;0.88;0.30;;;11.40;84.80;;;;;;5032917;28;20030;-69
2021/05/16 00:08:05;;;;;;;3.15;0.40;;;11.40;85.20;;;;;;5014286;28;20359;-69
2021/05/16 00:10:31;;;;;;;2.15;0.40;;;11.40;85.20;;;;;;5014864;28;20033;-69
2021/05/16 00:12:58;;;;;;;2.10;0.57;;;11.40;85.30;;;;;;5014242;28;20056;-69
2021/05/16 00:15:25;;;;;;;1.42;0.47;;;11.40;85.40;;;;;;5032302;28;20067;-69
2021/05/16 00:17:52;;;;;;;1.23;0.35;;;11.30;85.50;;;;;;5032746;28;20049;-69
2021/05/16 00:20:20;;;;;;;0.98;0.47;;;11.30;85.70;;;;;;5014186;28;20029;-69
2021/05/16 00:22:46;;;;;;;2.35;0.47;;;11.30;86.00;;;;;;5015978;28;20025;-69
2021/05/16 00:25:14;;;;;;;1.17;0.20;;;11.30;86.10;;;;;;5035963;28;20036;-69
2021/05/16 00:27:42;;;;;;;0.55;0.30;;;11.30;86.40;;;;;;5018503;28;20037;-69
2021/05/16 00:30:10;;;;;;;1.13;0.13;;;11.30;86.70;;;;;;5018152;28;20030;-69
2021/05/16 00:32:36;;;;;;;1.80;0.50;;;11.20;86.50;;;;;;5036393;28;20029;-69
2021/05/16 00:35:04;;;;;;;0.82;0.40;;;11.20;86.70;;;;;;5017691;28;20026;-69
2021/05/16 00:37:30;;;;;;;1.83;0.50;;;11.20;86.70;;;;;;5018254;28;20038;-69
2021/05/16 00:39:57;;;;;;;1.48;0.40;;;11.30;86.80;;;;;;5018651;28;20035;-69
2021/05/16 00:42:23;;;;;;;1.67;0.30;;;11.20;86.70;;;;;;5036253;28;20025;-69
2021/05/16 00:45:08;;;;;;;1.10;0.45;;;11.20;86.90;;;;;;5018511;28;20029;-69
2021/05/16 00:47:35;;;;;;;0.88;0.32;;;11.20;86.70;;;;;;5017951;28;20089;-69
2021/05/16 00:50:01;;;;;;;2.30;0.68;;;11.20;86.60;;;;;;5035567;28;20029;-69
2021/05/16 00:52:27;;;;;;;2.05;0.50;;;11.20;86.70;;;;;;5018338;28;20116;-68
2021/05/16 00:54:55;;;;;;;0.25;0.20;;;11.20;86.70;;;;;;5035798;28;20025;-68
2021/05/16 00:57:20;;;;;;;1.20;0.45;;;11.20;86.60;;;;;;5017590;28;20068;-68
2021/05/16 00:59:46;;;;;;;4.72;0.70;;;11.20;86.50;;;;;;5035969;28;20030;-69
2021/05/16 01:02:12;;;;;;;4.07;0.50;;;11.20;86.40;;;;;;5017600;28;20047;-69
2021/05/16 01:04:40;;;;;;;2.13;0.40;;;11.20;86.70;;;;;;5018413;28;20029;-69
2021/05/16 01:07:05;;;;;;;1.83;0.40;;;11.20;86.50;;;;;;5035238;28;20129;-69
2021/05/16 01:09:31;;;;;;;1.38;0.50;;;11.20;86.60;;;;;;5018081;28;20490;-68
2021/05/16 01:11:59;;;;;;;0.68;0.28;;;11.20;86.40;;;;;;5018037;28;20029;-68
2021/05/16 01:14:34;;;;;;;1.42;0.30;;;11.20;86.50;;;;;;5017947;28;20033;-68
2021/05/16 01:17:01;;;;;;;2.85;0.40;;;11.20;86.50;;;;;;5035223;28;20025;-72
2021/05/16 01:19:29;;;;;;;3.35;0.47;;;11.20;86.50;;;;;;5017835;28;20041;-69
2021/05/16 01:21:56;;;;;;;2.92;0.65;;;11.20;86.50;;;;;;5017926;28;20029;-69
2021/05/16 01:24:24;;;;;;;2.10;0.30;;;11.20;86.40;;;;;;5017202;28;20025;-68
2021/05/16 01:26:50;;;;;;;3.50;0.88;;;11.20;86.70;;;;;;5017917;28;20033;-68
2021/05/16 01:29:17;;;;;;;1.67;0.40;;;11.20;86.70;;;;;;5017130;28;20037;-69
2021/05/16 01:31:43;;;;;;;0.65;0.40;;;11.20;86.90;;;;;;5035484;28;20029;-68
2021/05/16 01:34:09;;;;;;;1.40;0.40;;;11.20;86.90;;;;;;5033615;28;20022;-69
2021/05/16 01:36:36;;;;;;;1.75;0.50;;;11.20;86.60;;;;;;5035322;28;20033;-69
2021/05/16 01:39:06;;;;;;;0.95;0.40;;;11.20;86.60;;;;;;5016878;28;20034;-70
2021/05/16 01:41:32;;;;;;;1.05;0.45;;;11.20;86.60;;;;;;5017490;28;20080;-68
2021/05/16 01:43:58;;;;;;;2.25;0.50;;;11.20;86.60;;;;;;5035123;28;20470;-68
2021/05/16 01:46:24;;;;;;;0.80;0.30;;;11.30;86.70;;;;;;5013192;28;20107;-68
2021/05/16 01:48:50;;;;;;;1.83;0.52;;;11.30;86.60;;;;;;5013812;28;20033;-68
2021/05/16 01:51:16;;;;;;;0.93;0.63;;;11.30;86.60;;;;;;5014940;28;20030;-69
2021/05/16 01:53:42;;;;;;;0.90;0.38;;;11.30;86.70;;;;;;5013956;28;20482;-68
2021/05/16 01:56:08;;;;;;;4.75;0.57;;;11.30;87.00;;;;;;5014450;28;20120;-69
2021/05/16 01:58:39;;;;;;;1.95;0.35;;;11.30;87.40;;;;;;5015125;28;20118;-69
2021/05/16 02:01:05;;;;;;;1.25;0.50;;;11.30;87.60;;;;;;5029828;28;20033;-69
2021/05/16 02:03:32;;;;;;;1.52;0.17;;;11.30;88.00;;;;;;5013874;28;20497;-68
2021/05/16 02:05:59;;;;;;;1.77;0.52;;;11.30;88.10;;;;;;5015023;28;20079;-69
2021/05/16 02:08:25;;;;;;;1.23;0.40;;;11.30;88.40;;;;;;5013050;28;20030;-69
2021/05/16 02:10:50;;;;;;;5.18;0.60;;;11.30;88.30;;;;;;5014896;28;20053;-69
2021/05/16 02:13:16;;;;;;;2.17;0.60;;;11.20;88.40;;;;;;5014276;28;20471;-69
2021/05/16 02:15:42;;;;;;;3.25;0.60;;;11.20;88.60;;;;;;5014519;28;20387;-68
2021/05/16 02:18:08;;;;;;;2.72;0.50;;;11.20;89.10;;;;;;5012867;28;20044;-69
2021/05/16 02:20:34;;;;;;;1.65;0.47;;;11.20;89.00;;;;;;5013119;28;20026;-69
2021/05/16 02:23:00;;;;;;;2.13;0.60;;;11.20;89.20;;;;;;5014425;28;20025;-68
2021/05/16 02:25:26;;;;;;;2.28;0.70;;;11.20;89.30;;;;;;5012788;28;20022;-68
2021/05/16 02:27:53;;;;;;;2.13;0.90;;;11.20;89.60;;;;;;5014576;28;20030;-68
2021/05/16 02:30:19;;;;;;;1.85;0.47;;;11.20;89.80;;;;;;5013879;28;20022;-68
2021/05/16 02:32:46;;;;;;;1.55;0.50;;;11.10;89.90;;;;;;5013227;28;20065;-68
2021/05/16 02:35:13;;;;;;;1.92;0.70;;;11.20;89.90;;;;;;5012547;28;20029;-69
2021/05/16 02:37:39;;;;;;;0.90;0.40;;;11.20;90.00;;;;;;5013203;28;20073;-68
2021/05/16 02:40:06;;;;;;;2.13;0.47;;;11.20;90.00;;;;;;5013529;28;20058;-72
2021/05/16 02:42:31;;;;;;;1.23;0.40;;;11.10;90.20;;;;;;5014303;28;20030;-68
2021/05/16 02:44:57;;;;;;;3.67;0.52;;;11.20;90.00;;;;;;5012822;28;20079;-68
2021/05/16 02:47:23;;;;;;;1.52;0.60;;;11.20;90.00;;;;;;5026482;28;20486;-68
2021/05/16 02:49:49;;;;;;;1.75;0.50;;;11.20;90.10;;;;;;5016190;28;20033;-69
2021/05/16 02:52:15;;;;;;;3.40;0.47;;;11.20;90.00;;;;;;5033307;28;20104;-68
2021/05/16 02:54:42;;;;;;;3.10;0.80;;;11.20;90.10;;;;;;5032687;28;20026;-68
2021/05/16 02:57:08;;;;;;;2.85;0.80;;;11.10;90.10;;;;;;5033135;28;20030;-69
2021/05/16 02:59:34;;;;;;;2.95;0.45;;;11.20;90.40;;;;;;5033745;28;20056;-68
2021/05/16 03:01:59;;;;;;;2.28;0.50;;;11.10;90.10;;;;;;5015899;28;20035;-68
2021/05/16 03:04:25;;;;;;;2.35;0.65;;;11.10;90.10;;;;;;5015306;28;20030;-69
2021/05/16 03:06:51;;;;;;;2.05;0.40;;;11.10;90.20;;;;;;5015904;28;20032;-68
2021/05/16 03:09:17;;;;;;;2.47;0.68;;;11.20;90.10;;;;;;5015280;28;20057;-69
2021/05/16 03:11:42;;;;;;;1.20;0.70;;;11.20;90.10;;;;;;5015870;28;20099;-68
2021/05/16 03:14:08;;;;;;;1.83;0.85;;;11.20;90.00;;;;;;5032609;28;20597;-69
2021/05/16 03:16:34;;;;;;;2.60;0.47;;;11.20;90.00;;;;;;5015518;28;20136;-69
2021/05/16 03:19:00;;;;;;;4.00;0.50;;;11.20;90.10;;;;;;5033397;28;20423;-68
2021/05/16 03:21:25;;;;;;;2.00;0.73;;;11.20;90.10;;;;;;5032763;28;20475;-69
2021/05/16 03:23:51;;;;;;;2.08;0.63;;;11.10;90.20;;;;;;5015546;28;20057;-68
2021/05/16 03:26:17;;;;;;;2.38;1.15;;;11.10;90.20;;;;;;5015002;28;20033;-69
2021/05/16 03:28:42;;;;;;;1.83;0.50;;;11.10;90.20;;;;;;5033262;28;20410;-68
2021/05/16 03:31:08;;;;;;;2.75;0.77;;;11.10;90.20;;;;;;5014639;28;20034;-70
2021/05/16 03:33:33;;;;;;;1.13;0.60;;;11.10;90.30;;;;;;5032853;28;20033;-68
2021/05/16 03:35:59;;;;;;;0.60;0.40;;;11.10;90.30;;;;;;5032817;28;20041;-68
2021/05/16 03:38:25;;;;;;;2.63;0.70;;;11.10;90.30;;;;;;5014816;28;20095;-68
2021/05/16 03:40:50;;;;;;;2.22;0.70;;;11.10;90.20;;;;;;5015477;28;20036;-69
2021/05/16 03:43:18;;;;;;;2.97;0.50;;;11.20;90.30;;;;;;5032355;28;20094;-69
2021/05/16 03:45:44;;;;;;;1.27;0.60;;;11.20;90.20;;;;;;5015141;28;20513;-68
2021/05/16 03:48:10;;;;;;;2.63;0.55;;;11.10;90.20;;;;;;5032512;28;20053;-69
2021/05/16 03:50:35;;;;;;;2.78;0.60;;;11.10;90.30;;;;;;5015127;28;20119;-69
2021/05/16 03:53:01;;;;;;;2.83;0.73;;;11.20;90.40;;;;;;5015042;28;20087;-69
2021/05/16 03:55:27;;;;;;;2.45;0.50;;;11.20;90.30;;;;;;5014501;28;20025;-69
2021/05/16 03:57:53;;;;;;;2.72;0.43;;;11.20;90.30;;;;;;5014370;28;20060;-68
2021/05/16 04:00:19;;;;;;;2.65;0.63;;;11.20;90.30;;;;;;5014406;28;20096;-69
2021/05/16 04:02:46;;;;;;;1.17;0.43;;;11.20;90.20;;;;;;5014674;28;20030;-68
2021/05/16 04:05:13;;;;;;;2.67;0.77;;;11.20;90.10;;;;;;5014333;28;20029;-69
2021/05/16 04:07:39;;;;;;;2.92;0.90;;;11.30;90.20;;;;;;5014467;28;20026;-68
2021/05/16 04:10:06;;;;;;;3.20;0.60;;;11.20;90.10;;;;;;5015004;28;20434;-68
2021/05/16 04:12:32;;;;;;;2.25;0.73;;;11.30;90.10;;;;;;5031952;28;20025;-68
2021/05/16 04:14:57;;;;;;;2.17;0.43;;;11.20;90.00;;;;;;5014806;28;20029;-68
2021/05/16 04:17:23;;;;;;;1.98;0.32;;;11.30;90.00;;;;;;5031477;28;20026;-69
2021/05/16 04:19:48;;;;;;;4.53;0.50;;;11.30;90.00;;;;;;5032448;28;20034;-68
2021/05/16 04:22:14;;;;;;;2.60;0.55;;;11.30;90.00;;;;;;5031861;28;20091;-69
2021/05/16 04:24:40;;;;;;;1.75;0.60;;;11.30;90.00;;;;;;5032437;28;20026;-69
2021/05/16 04:27:06;;;;;;;2.38;0.50;;;11.30;90.00;;;;;;5032446;28;20094;-68
2021/05/16 04:29:32;;;;;;;3.47;0.68;;;11.30;90.00;;;;;;5014059;28;20029;-68
2021/05/16 04:31:58;;;;;;;2.50;0.60;;;11.30;90.00;;;;;;5031210;28;20375;-69
2021/05/16 04:34:24;;;;;;;2.47;0.60;;;11.30;90.00;;;;;;5032048;28;20040;-70
2021/05/16 04:36:49;;;;;;;2.90;0.85;;;11.30;90.00;;;;;;5014814;28;20026;-69
2021/05/16 04:39:15;;;;;;;5.65;0.50;;;11.30;90.00;;;;;;5031446;28;20466;-69
2021/05/16 04:41:41;;;;;;;3.53;0.75;;;11.40;89.80;;;;;;5032299;28;20474;-70
2021/05/16 04:44:07;;;;;;;5.88;0.70;;;11.40;89.90;;;;;;5032277;28;20463;-69
2021/05/16 04:46:33;;;;;;;1.10;0.60;;;11.40;89.80;;;;;;5031356;28;20060;-69
2021/05/16 04:48:58;;;;;;;2.58;0.50;;;11.40;89.90;;;;;;5032195;28;20029;-69
2021/05/16 04:51:24;;;;;;;0.68;0.38;;;11.40;89.90;;;;;;5031621;28;20075;-69
2021/05/16 04:53:50;;;;;;;2.42;0.70;;;11.40;89.70;;;;;;5031894;28;20072;-70
2021/05/16 04:56:15;;;;;;;3.40;0.70;;;11.30;89.70;;;;;;5030163;28;20470;-70
2021/05/16 04:58:41;;;;;;;3.40;0.60;;;11.40;89.90;;;;;;5014675;28;20041;-70
2021/05/16 05:01:07;;;;;;;3.40;0.50;;;11.40;89.60;;;;;;5030822;28;20468;-69
2021/05/16 05:03:33;;;;;;;4.20;0.70;;;11.40;89.60;;;;;;5031577;28;20325;-69
2021/05/16 05:05:59;;;;;;;2.13;0.60;;;11.50;89.50;;;;;;5030824;28;20493;-69
2021/05/16 05:08:26;;;;;;;2.72;0.40;;;11.50;89.50;;;;;;5032155;28;20030;-70
2021/05/16 05:10:52;;;;;;;1.52;0.50;;;11.50;89.50;;;;;;5035774;28;20028;-69
2021/05/16 05:13:18;;;;;;;1.98;0.40;;;11.50;89.70;;;;;;5017419;28;20116;-69
2021/05/16 05:15:43;;;;;;;2.35;0.60;;;11.50;90.00;;;;;;5017829;28;20129;-69
2021/05/16 05:18:09;;;;;;;7.30;1.02;;;11.50;89.80;;;;;;5035685;28;20036;-69
2021/05/16 05:20:35;;;;;;;0.82;0.43;;;11.50;89.80;;;;;;5017362;28;20401;-69
2021/05/16 05:23:01;;;;;;;3.05;0.40;;;11.60;89.90;;;;;;5017779;28;20021;-69
2021/05/16 05:25:28;;;;;;;1.52;0.40;;;11.60;89.40;;;;;;5017226;28;20105;-69
2021/05/16 05:27:54;;;;;;;2.42;0.60;;;11.60;89.70;;;;;;5017686;28;20390;-69
2021/05/16 05:30:22;;;;;;;5.25;0.80;;;11.70;89.60;;;;;;5034927;28;20490;-69
2021/05/16 05:32:47;;;;;;;4.85;0.52;;;11.90;89.20;;;;;;5035921;28;20489;-69
2021/05/16 05:35:13;;;;;;;1.30;0.40;;;11.90;89.70;;;;;;5017815;28;20029;-69
2021/05/16 05:37:39;;;;;;;4.22;0.55;;;11.80;90.20;;;;;;5034857;28;20034;-69
2021/05/16 05:40:05;;;;;;;4.65;0.70;;;11.80;90.40;;;;;;5017993;28;20129;-69
2021/05/16 05:42:31;;;;;;;4.47;0.80;;;11.80;90.40;;;;;;5016894;28;20033;-69
2021/05/16 05:44:57;;;;;;;4.35;0.60;;;11.80;90.50;;;;;;5033738;28;20518;-69
2021/05/16 05:47:22;;;;;;;6.63;0.45;;;11.80;90.50;;;;;;5016202;28;20042;-69
2021/05/16 05:49:48;;;;;;;0.75;0.28;;;11.80;90.30;;;;;;5017059;28;20078;-69
2021/05/16 05:52:13;;;;;;;2.78;0.68;;;11.80;90.40;;;;;;5017407;28;20037;-69
2021/05/16 05:54:39;;;;;;;2.72;0.35;;;11.70;90.60;;;;;;5034154;28;20364;-69
2021/05/16 05:57:05;;;;;;;2.13;1.00;;;11.70;90.50;;;;;;5033607;28;20367;-69
2021/05/16 05:59:31;;;;;;;3.53;0.50;;;11.70;90.70;;;;;;5016573;28;20033;-69
2021/05/16 06:01:59;;;;;;;1.90;0.47;;;11.70;90.50;;;;;;5017157;28;20057;-69
2021/05/16 06:04:25;;;;;;;3.72;0.38;;;11.80;90.30;;;;;;5016516;28;20030;-69
2021/05/16 06:06:50;;;;;;;1.13;0.40;;;11.80;90.20;;;;;;5034806;28;20033;-69
2021/05/16 06:09:16;;;;;;;2.53;0.50;;;11.80;90.20;;;;;;5034889;28;20030;-69
2021/05/16 06:11:42;;;;;;;1.85;0.60;;;11.90;90.10;;;;;;5016605;28;20112;-69
2021/05/16 06:14:07;;;;;;;1.15;0.50;;;11.90;90.00;;;;;;5034489;28;20029;-69
2021/05/16 06:16:33;;;;;;;2.78;0.57;;;12.00;90.20;;;;;;5032866;28;20037;-69
2021/05/16 06:19:00;;;;;;;23.67;12.23;;;12.00;89.80;;;;;;5016695;28;20390;-69
2021/05/16 06:21:26;;;;;;;23.42;8.82;;;12.00;90.00;;;;;;5015845;28;20429;-69
2021/05/16 06:26:27;;;;;;;13.38;5.40;;;12.20;89.10;;;;;;5033889;28;20108;-69
2021/05/16 06:28:52;;;;;;;7.05;3.35;;;12.20;89.00;;;;;;5034354;28;20060;-69
2021/05/16 06:31:19;;;;;;;13.45;5.55;;;12.40;88.80;;;;;;5016435;28;20124;-73
2021/05/16 06:33:45;;;;;;;2.17;0.95;;;12.40;88.10;;;;;;5034250;28;20029;-69
2021/05/16 06:36:10;;;;;;;3.80;0.50;;;12.40;88.20;;;;;;5016433;28;20378;-69
2021/05/16 06:38:36;;;;;;;1.67;0.60;;;12.40;87.80;;;;;;5015880;28;20459;-69
2021/05/16 06:41:02;;;;;;;4.72;1.00;;;12.40;87.30;;;;;;5034123;28;20443;-69
2021/05/16 06:43:27;;;;;;;2.83;0.47;;;12.30;86.70;;;;;;5033510;28;20038;-69
2021/05/16 06:45:53;;;;;;;1.90;0.50;;;12.30;87.20;;;;;;5032226;28;20029;-69
2021/05/16 06:48:19;;;;;;;3.00;0.50;;;12.40;87.80;;;;;;5034029;28;20033;-69
2021/05/16 06:50:44;;;;;;;0.90;0.30;;;12.40;86.90;;;;;;5015946;28;20027;-69
2021/05/16 06:53:10;;;;;;;3.47;0.70;;;12.60;86.10;;;;;;5033978;28;20060;-69
2021/05/16 06:55:36;;;;;;;4.65;0.50;;;12.70;87.00;;;;;;5015554;28;20385;-69
2021/05/16 06:58:02;;;;;;;1.88;0.50;;;12.70;85.70;;;;;;5016086;28;20474;-69
2021/05/16 07:00:30;;;;;;;2.10;0.50;;;12.80;85.40;;;;;;5031852;28;20057;-69
2021/05/16 07:02:56;;;;;;;2.35;0.40;;;12.80;85.30;;;;;;5016037;28;20022;-70
2021/05/16 07:05:22;;;;;;;2.25;0.47;;;12.90;85.00;;;;;;5031732;28;20025;-71
2021/05/16 07:07:47;;;;;;;3.28;0.88;;;12.90;84.60;;;;;;5033772;28;20107;-69
2021/05/16 07:10:13;;;;;;;1.55;0.30;;;13.00;84.90;;;;;;5016114;28;20429;-69
2021/05/16 07:12:39;;;;;;;2.78;0.60;;;13.00;84.00;;;;;;5033003;28;20051;-69
2021/05/16 07:15:05;;;;;;;2.67;0.40;;;13.10;83.30;;;;;;5015759;28;20389;-69
2021/05/16 07:17:31;;;;;;;2.75;0.38;;;13.10;82.90;;;;;;5015205;28;20033;-69
2021/05/16 07:19:56;;;;;;;0.98;0.40;;;13.20;83.40;;;;;;5033202;28;20463;-69
2021/05/16 07:22:22;;;;;;;2.15;0.50;;;13.30;83.30;;;;;;5015145;28;20469;-70
2021/05/16 07:24:47;;;;;;;0.50;0.40;;;13.20;83.10;;;;;;5015689;28;20025;-69
2021/05/16 07:27:13;;;;;;;3.45;0.55;;;13.30;82.10;;;;;;5015592;28;20500;-69
2021/05/16 07:29:39;;;;;;;2.00;0.40;;;13.30;81.80;;;;;;5032342;28;20025;-69
2021/05/16 07:32:05;;;;;;;2.88;0.52;;;13.40;81.50;;;;;;5014747;28;20033;-69
2021/05/16 07:34:31;;;;;;;0.52;0.30;;;13.50;81.90;;;;;;5014884;28;20378;-69
2021/05/16 07:36:56;;;;;;;2.40;0.40;;;13.50;80.70;;;;;;5015457;28;20393;-69
2021/05/16 07:39:22;;;;;;;3.45;0.60;;;13.50;81.20;;;;;;5015196;28;20035;-72
2021/05/16 07:41:48;;;;;;;0.75;0.32;;;13.50;81.60;;;;;;5015424;28;20028;-69
2021/05/16 07:44:13;;;;;;;0.77;0.20;;;13.40;80.60;;;;;;5033117;28;20459;-69
2021/05/16 07:46:39;;;;;;;2.92;0.50;;;13.30;81.10;;;;;;5014223;28;20054;-69
2021/05/16 07:49:05;;;;;;;2.80;0.57;;;13.40;80.90;;;;;;5032639;28;20091;-69
2021/05/16 07:51:33;;;;;;;2.60;0.68;;;13.40;81.30;;;;;;5014665;28;20026;-70
2021/05/16 07:53:59;;;;;;;3.92;0.75;;;13.60;81.20;;;;;;5015206;28;20082;-69
2021/05/16 07:56:24;;;;;;;1.75;0.60;;;13.60;80.90;;;;;;5032357;28;20413;-69
2021/05/16 07:58:50;;;;;;;1.63;0.63;;;13.60;80.60;;;;;;5032765;28;20044;-70
2021/05/16 08:01:16;;;;;;;3.28;0.50;;;13.60;79.80;;;;;;5015024;28;20025;-69
2021/05/16 08:03:41;;;;;;;4.10;0.82;;;13.60;78.50;;;;;;5032102;28;20049;-69
2021/05/16 08:06:07;;;;;;;2.33;0.70;;;13.60;78.60;;;;;;5015112;28;20025;-69
2021/05/16 08:08:33;;;;;;;5.07;1.58;;;13.70;77.40;;;;;;5014205;28;20121;-70
2021/05/16 08:10:58;;;;;;;11.32;5.05;;;13.70;77.70;;;;;;5031425;28;20022;-69
2021/05/16 08:13:24;;;;;;;6.00;1.73;;;13.90;75.90;;;;;;5032578;28;20490;-73
2021/05/16 08:15:50;;;;;;;4.68;0.88;;;14.00;75.70;;;;;;5032165;28;20104;-69
2021/05/16 08:18:15;;;;;;;3.85;0.77;;;14.00;75.20;;;;;;5032498;28;20467;-69
2021/05/16 08:20:41;;;;;;;4.97;0.55;;;14.10;74.80;;;;;;5014221;28;20188;-69
2021/05/16 08:23:07;;;;;;;4.65;0.95;;;14.20;74.20;;;;;;5015003;28;20387;-69
2021/05/16 08:25:35;;;;;;;4.40;1.23;;;14.30;74.40;;;;;;5032073;28;20029;-69
2021/05/16 08:28:01;;;;;;;3.10;0.63;;;14.40;74.70;;;;;;5031171;28;20030;-70
2021/05/16 08:30:28;;;;;;;4.55;0.88;;;14.50;73.50;;;;;;5031829;28;20022;-70
2021/05/16 08:32:54;;;;;;;2.58;0.90;;;14.50;73.70;;;;;;5014714;28;20034;-69
2021/05/16 08:35:20;;;;;;;3.65;0.80;;;14.50;73.50;;;;;;5014564;28;20059;-69
2021/05/16 08:37:46;;;;;;;6.07;1.13;;;14.50;72.60;;;;;;5031391;28;20036;-69
2021/05/16 08:40:12;;;;;;;3.47;1.00;;;14.70;73.30;;;;;;5014579;28;20025;-69
2021/05/16 08:42:38;;;;;;;3.90;0.70;;;14.80;73.20;;;;;;5031671;28;20026;-70
2021/05/16 08:45:09;;;;;;;2.88;0.52;;;14.90;74.50;;;;;;5017852;28;20550;-70
2021/05/16 08:47:35;;;;;;;4.87;0.73;;;15.00;71.20;;;;;;5017641;28;20053;-69
2021/05/16 08:50:00;;;;;;;2.05;0.70;;;15.00;71.10;;;;;;5018811;28;20396;-69
2021/05/16 08:52:26;;;;;;;3.78;0.93;;;15.00;70.40;;;;;;5036108;28;20075;-73
2021/05/16 08:54:53;;;;;;;3.90;0.60;;;15.10;69.30;;;;;;5018364;28;20029;-69
2021/05/16 08:57:19;;;;;;;9.18;0.90;;;15.10;67.90;;;;;;5018300;28;20033;-69
2021/05/16 09:00:12;;;;;;;2.13;0.68;;;15.20;67.90;;;;;;5017434;28;20037;-70
2021/05/16 09:03:10;;;;;;;4.65;0.80;;;15.20;68.40;;;;;;5017601;28;20017;-70
2021/05/16 09:05:51;;;;;;;4.55;1.20;;;15.30;68.70;;;;;;5017769;28;20022;-70
2021/05/16 09:08:20;;;;;;;3.35;0.60;;;15.30;69.60;;;;;;5018232;28;20029;-69
2021/05/16 09:10:57;;;;;;;6.70;0.95;;;15.40;69.80;;;;;;5017135;28;20033;-70
2021/05/16 09:13:45;;;;;;;2.97;0.50;;;15.40;69.20;;;;;;5035992;28;20056;-69
2021/05/16 09:16:16;;;;;;;16.00;7.78;;;15.50;68.40;;;;;;5018055;28;20037;-69
2021/05/16 09:18:53;;;;;;;13.43;5.45;;;15.60;67.60;;;;;;5035181;28;20029;-70
2021/05/16 09:21:34;;;;;;;8.95;4.15;;;15.50;67.50;;;;;;5035693;28;20026;-70
2021/05/16 09:24:02;;;;;;;36.85;16.42;;;15.40;67.70;;;;;;5018073;28;20030;-70
2021/05/16 09:26:36;;;;;;;5.68;2.47;;;15.50;66.30;;;;;;5017774;28;20034;-70
2021/05/16 09:29:23;;;;;;;8.35;1.58;;;15.40;66.80;;;;;;5017902;28;20072;-70
2021/05/16 09:31:49;;;;;;;4.70;1.10;;;15.40;65.10;;;;;;5017089;28;20435;-70
2021/05/16 09:34:16;;;;;;;5.97;0.93;;;15.30;65.90;;;;;;5035379;28;20041;-71
2021/05/16 09:36:45;;;;;;;4.90;0.90;;;15.20;66.40;;;;;;5016997;28;20033;-70
2021/05/16 09:39:12;;;;;;;3.25;0.82;;;15.10;66.30;;;;;;5035279;28;20060;-70
2021/05/16 09:41:53;;;;;;;5.72;0.93;;;15.10;66.10;;;;;;5034690;28;20097;-70
2021/05/16 09:44:34;;;;;;;2.50;0.60;;;15.20;67.30;;;;;;5017596;28;20057;-70
2021/05/16 09:47:27;;;;;;;3.10;0.88;;;15.30;66.80;;;;;;5034830;28;20045;-70
2021/05/16 09:49:52;;;;;;;2.75;0.63;;;15.40;67.40;;;;;;5013729;28;20084;-70
2021/05/16 09:52:23;;;;;;;2.42;0.80;;;15.50;67.40;;;;;;5017304;28;20029;-70
2021/05/16 09:55:07;;;;;;;4.30;0.85;;;15.40;68.40;;;;;;5016040;28;20029;-70
2021/05/16 09:57:36;;;;;;;3.70;0.70;;;15.40;66.90;;;;;;5016535;28;20529;-70
2021/05/16 10:00:06;;;;;;;1.92;0.50;;;15.50;65.60;;;;;;5017537;28;20040;-70
2021/05/16 10:02:32;;;;;;;2.92;0.57;;;15.50;65.30;;;;;;5016536;28;20481;-71
2021/05/16 10:05:01;;;;;;;5.85;0.80;;;15.70;66.10;;;;;;5034911;28;20104;-70
2021/05/16 10:07:27;;;;;;;4.55;0.77;;;15.80;66.60;;;;;;5034688;28;20026;-70
2021/05/16 10:09:54;;;;;;;4.03;0.70;;;15.80;66.90;;;;;;5016414;28;20031;-70
2021/05/16 10:12:22;;;;;;;3.95;0.52;;;16.00;66.50;;;;;;5034674;28;20057;-70
2021/05/16 10:15:09;;;;;;;2.97;0.80;;;16.10;64.80;;;;;;5016276;28;20425;-70
2021/05/16 10:17:37;;;;;;;8.20;1.90;;;16.20;62.50;;;;;;5033929;28;20128;-71
2021/05/16 10:20:16;;;;;;;22.17;11.68;;;16.20;63.80;;;;;;5016964;28;20079;-70
2021/05/16 10:22:51;;;;;;;11.88;5.35;;;16.20;62.40;;;;;;5033904;28;20112;-70
2021/05/16 10:25:44;;;;;;;3.97;1.00;;;16.10;61.70;;;;;;5034486;28;20021;-70
2021/05/16 10:28:16;;;;;;;5.47;1.23;;;16.00;62.90;;;;;;5034477;28;20514;-70
2021/05/16 10:31:06;;;;;;;2.15;0.63;;;16.00;62.20;;;;;;5016111;28;20029;-70
2021/05/16 10:33:36;;;;;;;2.90;0.55;;;15.90;61.80;;;;;;5034030;28;20537;-70
2021/05/16 10:36:03;;;;;;;3.60;0.60;;;15.90;62.90;;;;;;5034282;28;20108;-70
2021/05/16 10:38:37;;;;;;;1.95;0.60;;;15.80;62.10;;;;;;5016639;28;20048;-70
2021/05/16 10:41:18;;;;;;;3.22;0.63;;;15.80;62.50;;;;;;5016475;28;20134;-70
2021/05/16 10:43:45;;;;;;;6.55;0.70;;;15.90;62.10;;;;;;5015641;28;20053;-70
2021/05/16 10:46:43;;;;;;;2.65;0.50;;;16.00;62.80;;;;;;5032485;28;20490;-70
2021/05/16 10:49:26;;;;;;;2.95;0.57;;;16.10;63.10;;;;;;5016358;28;20064;-69
2021/05/16 10:51:52;;;;;;;6.65;0.85;;;16.20;63.10;;;;;;5033285;28;20018;-70
2021/05/16 10:54:32;;;;;;;4.47;0.50;;;16.30;63.00;;;;;;5034495;28;20044;-70
2021/05/16 10:57:15;;;;;;;5.22;0.82;;;16.40;63.60;;;;;;5015616;28;20044;-70
2021/05/16 10:59:43;;;;;;;3.63;0.60;;;16.50;62.30;;;;;;5032275;28;20356;-70
2021/05/16 11:02:09;;;;;;;4.13;0.80;;;16.50;61.10;;;;;;5032476;28;20462;-70
2021/05/16 11:04:46;;;;;;;1.55;0.45;;;16.50;59.50;;;;;;5032220;28;20029;-73
2021/05/16 11:07:31;;;;;;;12.15;4.05;;;16.50;59.40;;;;;;5015891;28;20421;-70
2021/05/16 11:10:22;;;;;;;22.83;10.55;;;16.60;60.70;;;;;;5015247;28;20025;-71
2021/05/16 11:12:48;;;;;;;2.95;1.30;;;16.70;61.40;;;;;;5015303;28;20112;-70
2021/05/16 11:15:24;;;;;;;4.93;1.70;;;16.80;60.30;;;;;;5033573;28;20188;-72
2021/05/16 11:17:51;;;;;;;2.50;0.75;;;16.80;58.80;;;;;;5014938;28;20041;-70
2021/05/16 11:20:18;;;;;;;3.33;0.90;;;16.90;55.80;;;;;;5033331;28;20025;-70
2021/05/16 11:22:44;;;;;;;2.88;0.50;;;16.90;57.10;;;;;;5014955;28;20056;-70
2021/05/16 11:25:10;;;;;;;3.40;0.50;;;16.90;57.60;;;;;;5033324;28;20553;-70
2021/05/16 11:27:36;;;;;;;3.28;0.70;;;17.00;59.10;;;;;;5015294;28;20033;-74
2021/05/16 11:30:11;;;;;;;2.50;0.52;;;17.20;57.20;;;;;;5015294;28;20036;-70
2021/05/16 11:32:37;;;;;;;5.57;0.73;;;17.40;56.00;;;;;;5014912;28;20025;-71
2021/05/16 11:35:20;;;;;;;2.35;0.40;;;17.40;56.00;;;;;;5033124;28;20029;-71
2021/05/16 11:37:52;;;;;;;5.13;0.68;;;17.60;56.60;;;;;;5032203;28;20033;-71
2021/05/16 11:40:24;;;;;;;3.67;0.70;;;17.70;54.80;;;;;;5015300;28;20026;-70
2021/05/16 11:43:07;;;;;;;2.65;0.50;;;17.50;55.30;;;;;;5014637;28;20036;-70
2021/05/16 11:45:37;;;;;;;3.95;0.82;;;17.30;54.30;;;;;;5032822;28;20470;-70
2021/05/16 11:48:03;;;;;;;2.03;0.60;;;17.30;54.30;;;;;;5014799;28;20138;-70
2021/05/16 11:50:43;;;;;;;3.15;0.47;;;17.20;55.60;;;;;;5015193;28;20029;-70
2021/05/16 11:53:09;;;;;;;3.05;0.60;;;17.20;55.10;;;;;;5032790;28;20029;-70
2021/05/16 11:55:35;;;;;;;1.95;0.50;;;17.40;56.00;;;;;;5032782;28;20037;-70
2021/05/16 11:58:02;;;;;;;2.10;0.52;;;17.30;56.30;;;;;;5014277;28;20029;-70
2021/05/16 12:00:30;;;;;;;3.42;0.50;;;17.10;56.30;;;;;;5014934;28;20474;-70
2021/05/16 12:03:13;;;;;;;2.40;0.50;;;17.20;56.50;;;;;;5014378;28;20095;-70
2021/05/16 12:05:40;;;;;;;1.00;0.50;;;17.20;54.90;;;;;;5032083;28;20104;-71
2021/05/16 12:08:23;;;;;;;3.60;0.57;;;17.20;55.60;;;;;;5030978;28;20037;-70
2021/05/16 12:11:16;;;;;;;4.03;0.50;;;17.20;56.00;;;;;;5032239;28;20103;-70
2021/05/16 12:13:42;;;;;;;1.05;0.43;;;17.30;56.40;;;;;;5032010;28;20026;-71
2021/05/16 12:16:23;;;;;;;6.20;0.57;;;17.30;54.80;;;;;;5032118;28;20474;-70
2021/05/16 12:18:51;;;;;;;5.28;0.60;;;17.40;55.20;;;;;;5031263;28;20104;-70
2021/05/16 12:21:18;;;;;;;3.50;0.70;;;17.50;54.00;;;;;;5032333;28;20103;-70
2021/05/16 12:23:58;;;;;;;1.55;0.50;;;17.60;54.50;;;;;;5031533;28;20517;-70
2021/05/16 12:26:24;;;;;;;1.30;0.40;;;17.70;53.30;;;;;;5032133;28;20395;-70
2021/05/16 12:28:51;;;;;;;3.30;2.03;;;17.70;54.10;;;;;;5014115;28;20025;-70
2021/05/16 12:31:18;;;;;;;5.93;3.40;;;17.80;54.20;;;;;;5014632;28;20026;-70
2021/05/16 12:33:45;;;;;;;4.00;0.68;;;17.90;54.30;;;;;;5031736;28;20522;-70
2021/05/16 12:36:12;;;;;;;1.67;0.43;;;18.10;54.60;;;;;;5014417;28;20036;-70
2021/05/16 12:38:43;;;;;;;2.40;0.45;;;18.30;53.80;;;;;;5032275;28;20021;-70
2021/05/16 12:41:26;;;;;;;2.20;0.43;;;18.40;53.40;;;;;;5014624;28;20026;-70
2021/05/16 12:44:24;;;;;;;3.50;0.60;;;18.20;54.30;;;;;;5013956;28;20406;-70
2021/05/16 12:46:51;;;;;;;3.42;0.50;;;18.10;54.30;;;;;;5013397;28;20042;-70
2021/05/16 12:49:27;;;;;;;4.03;0.50;;;17.90;54.60;;;;;;5014509;28;20475;-70
2021/05/16 12:51:58;;;;;;;2.63;0.45;;;17.90;54.90;;;;;;5013829;28;20036;-69
2021/05/16 12:54:26;;;;;;;0.40;0.20;;;18.00;55.40;;;;;;5032229;28;20079;-69